Time;durP1;ratioP1;P1;durP2;ratioP2;P2;SDS_P1;SDS_P2;PMS_P1;PMS_P2;Temp;Humidity;BMP_temperature;BMP_pressure;BME280_temperature;BME280_humidity;BME280_pressure;Samples;Min_cycle;Max_cycle;Signal;HPM_P1;HPM_P2
2022/10/18 00:01:56;;;;;;;13.35;4.85;;;;;;;;;;6266649;22;20012;-96
2022/10/18 00:04:28;;;;;;;12.70;5.55;;;;;;;;;;6254303;22;20012;-96
2022/10/18 00:10:02;;;;;;;12.13;5.75;;;;;;;;;;6280555;22;20014;-96
2022/10/18 00:12:35;;;;;;;13.77;5.90;;;;;;;;;;6256911;22;20011;-95
2022/10/18 00:18:13;;;;;;;13.23;5.32;;;;;;;;;;6314037;22;20153;-96
2022/10/18 00:21:01;;;;;;;14.75;6.90;;;;;;;;;;6291234;22;20076;-96
2022/10/18 00:32:35;;;;;;;10.57;4.63;;;;;;;;;;6343268;22;20068;-96
2022/10/18 00:35:05;;;;;;;10.48;4.38;;;;;;;;;;6320091;22;20003;-96
2022/10/18 00:40:35;;;;;;;10.07;4.32;;;;;;;;;;6347946;22;20352;-96
2022/10/18 00:43:01;;;;;;;10.40;4.30;;;;;;;;;;6320024;22;20003;-92
2022/10/18 00:45:49;;;;;;;12.25;5.18;;;;;;;;;;6319357;22;20035;-96
2022/10/18 00:51:43;;;;;;;10.13;4.13;;;;;;;;;;6318553;22;20018;-96
2022/10/18 00:57:12;;;;;;;8.77;4.53;;;;;;;;;;6316187;22;20038;-92
2022/10/18 01:09:02;;;;;;;10.43;4.28;;;;;;;;;;6315734;22;20095;-96
2022/10/18 01:16:33;;;;;;;11.65;5.63;;;;;;;;;;6304228;22;20019;-92
2022/10/18 01:22:27;;;;;;;7.97;4.32;;;;;;;;;;6314595;22;20022;-95
2022/10/18 01:25:15;;;;;;;11.88;4.78;;;;;;;;;;6285266;22;20064;-94
2022/10/18 01:31:17;;;;;;;10.53;4.67;;;;;;;;;;6312393;22;20023;-95
2022/10/18 01:33:57;;;;;;;12.15;3.97;;;;;;;;;;6287088;22;20244;-96
2022/10/18 01:36:43;;;;;;;11.23;5.15;;;;;;;;;;6284930;22;20011;-96
2022/10/18 01:39:37;;;;;;;13.45;5.18;;;;;;;;;;6292053;22;20007;-96
2022/10/18 01:42:11;;;;;;;11.57;4.55;;;;;;;;;;6286185;22;20010;-95
2022/10/18 01:53:21;;;;;;;11.30;5.35;;;;;;;;;;6315143;22;20393;-96
2022/10/18 02:07:38;;;;;;;13.45;5.38;;;;;;;;;;6318492;22;20018;-93
2022/10/18 02:16:51;;;;;;;18.05;7.15;;;;;;;;;;6298188;22;20026;-96
2022/10/18 02:42:59;;;;;;;14.10;5.97;;;;;;;;;;6314386;22;20053;-91
2022/10/18 02:45:28;;;;;;;10.65;5.35;;;;;;;;;;6283179;22;20024;-96
2022/10/18 02:47:58;;;;;;;12.45;6.22;;;;;;;;;;6283533;22;20073;-95
2022/10/18 02:50:33;;;;;;;10.55;5.65;;;;;;;;;;6285104;22;20083;-96
2022/10/18 03:01:40;;;;;;;8.63;4.68;;;;;;;;;;6310331;22;20026;-94
2022/10/18 03:04:12;;;;;;;8.40;4.60;;;;;;;;;;6286361;22;20079;-96
2022/10/18 03:09:46;;;;;;;8.73;3.67;;;;;;;;;;6314106;22;20037;-96
2022/10/18 03:12:12;;;;;;;14.90;4.35;;;;;;;;;;6285826;22;20003;-93
2022/10/18 03:15:03;;;;;;;9.13;4.63;;;;;;;;;;6285794;22;20035;-91
2022/10/18 03:20:05;;;;;;;12.48;5.05;;;;;;;;;;6257313;22;20811;-93
2022/10/18 03:23:09;;;;;;;14.60;6.40;;;;;;;;;;6290556;22;20015;-96
2022/10/18 03:25:35;;;;;;;9.98;4.30;;;;;;;;;;6289586;22;20018;-93
2022/10/18 03:28:10;;;;;;;13.25;4.78;;;;;;;;;;6292209;22;20071;-96
2022/10/18 03:39:29;;;;;;;12.73;6.03;;;;;;;;;;6312403;22;20383;-95
2022/10/18 03:42:08;;;;;;;10.43;4.72;;;;;;;;;;6289206;22;20030;-96
2022/10/18 03:47:49;;;;;;;9.93;5.45;;;;;;;;;;6311923;22;20018;-92
2022/10/18 03:53:47;;;;;;;12.07;4.93;;;;;;;;;;6156975;23;20020;-93
2022/10/18 03:56:13;;;;;;;9.85;4.75;;;;;;;;;;6187805;22;20031;-95
2022/10/18 03:58:39;;;;;;;13.23;5.03;;;;;;;;;;6285148;22;20003;-95
2022/10/18 04:01:15;;;;;;;12.38;5.57;;;;;;;;;;6285278;22;20003;-96
2022/10/18 04:03:41;;;;;;;11.88;4.75;;;;;;;;;;6283756;22;20007;-93
2022/10/18 04:12:32;;;;;;;16.48;5.90;;;;;;;;;;6311512;22;20022;-96
2022/10/18 04:21:05;;;;;;;9.48;4.03;;;;;;;;;;6313290;22;20033;-93
2022/10/18 04:29:45;;;;;;;9.50;4.60;;;;;;;;;;6315861;22;20454;-96
2022/10/18 04:32:17;;;;;;;9.18;4.88;;;;;;;;;;6285178;22;20312;-96
2022/10/18 04:52:56;;;;;;;11.57;5.65;;;;;;;;;;6281222;22;20026;-95
2022/10/18 04:58:07;;;;;;;10.50;6.00;;;;;;;;;;6300943;22;20121;-96
2022/10/18 05:03:59;;;;;;;20.70;5.60;;;;;;;;;;6313183;22;20063;-96
2022/10/18 05:06:47;;;;;;;11.02;5.40;;;;;;;;;;6290161;22;20046;-96
2022/10/18 05:09:13;;;;;;;12.73;5.47;;;;;;;;;;6286421;22;20060;-92
2022/10/18 05:12:01;;;;;;;13.75;5.38;;;;;;;;;;6281150;22;20020;-93
2022/10/18 05:14:37;;;;;;;15.05;6.13;;;;;;;;;;6288692;22;20058;-96
2022/10/18 05:17:18;;;;;;;10.38;5.55;;;;;;;;;;6289341;22;20098;-95
2022/10/18 05:22:46;;;;;;;12.90;5.60;;;;;;;;;;6324465;22;20017;-93
2022/10/18 05:25:12;;;;;;;13.52;6.28;;;;;;;;;;6293152;22;20030;-90
2022/10/18 05:28:05;;;;;;;23.92;6.78;;;;;;;;;;6306747;22;20046;-90
2022/10/18 05:33:37;;;;;;;10.75;5.32;;;;;;;;;;6325232;22;20065;-92
2022/10/18 05:36:04;;;;;;;15.50;5.32;;;;;;;;;;6297012;22;20045;-91
2022/10/18 05:38:48;;;;;;;12.70;6.20;;;;;;;;;;6286386;22;20035;-94
2022/10/18 05:44:24;;;;;;;11.82;5.38;;;;;;;;;;6318444;22;20030;-91
2022/10/18 05:49:56;;;;;;;11.98;6.60;;;;;;;;;;6340369;22;20102;-90
2022/10/18 05:55:38;;;;;;;9.73;5.60;;;;;;;;;;6340196;22;20067;-90
2022/10/18 05:58:07;;;;;;;16.90;7.90;;;;;;;;;;6313144;22;20030;-96
2022/10/18 06:03:42;;;;;;;20.25;7.55;;;;;;;;;;6346800;22;20064;-91
2022/10/18 06:06:11;;;;;;;23.52;9.60;;;;;;;;;;6313827;22;20033;-91
2022/10/18 06:08:44;;;;;;;25.60;8.38;;;;;;;;;;6315115;22;20009;-94
2022/10/18 06:11:26;;;;;;;19.15;7.35;;;;;;;;;;6314797;22;20007;-95
2022/10/18 06:23:18;;;;;;;18.77;8.43;;;;;;;;;;6341555;22;20010;-94
2022/10/18 06:25:44;;;;;;;13.05;8.13;;;;;;;;;;6311971;22;20007;-94
2022/10/18 06:28:10;;;;;;;15.40;8.02;;;;;;;;;;6314200;22;20022;-92
2022/10/18 06:33:39;;;;;;;14.70;7.95;;;;;;;;;;6341598;22;20009;-92
2022/10/18 06:36:07;;;;;;;12.38;7.18;;;;;;;;;;6314847;22;20034;-91
2022/10/18 06:38:52;;;;;;;12.07;7.57;;;;;;;;;;6316227;22;20767;-93
2022/10/18 06:41:30;;;;;;;16.65;8.10;;;;;;;;;;6314523;22;20247;-94
2022/10/18 06:44:13;;;;;;;15.85;8.73;;;;;;;;;;6314586;22;20003;-94
2022/10/18 06:49:58;;;;;;;15.23;8.60;;;;;;;;;;6278909;22;20015;-92
2022/10/18 06:52:24;;;;;;;15.73;9.63;;;;;;;;;;6283698;22;20003;-92
2022/10/18 07:09:28;;;;;;;13.80;6.85;;;;;;;;;;6309508;22;20010;-91
2022/10/18 07:12:19;;;;;;;9.18;6.00;;;;;;;;;;6283203;22;20111;-94
2022/10/18 07:14:45;;;;;;;9.40;4.85;;;;;;;;;;6282274;22;20003;-91
2022/10/18 07:17:40;;;;;;;9.38;4.70;;;;;;;;;;6282043;22;20011;-94
2022/10/18 07:20:06;;;;;;;7.50;4.85;;;;;;;;;;6284842;22;20324;-91
2022/10/18 07:25:30;;;;;;;11.40;5.43;;;;;;;;;;6308761;22;20062;-95
2022/10/18 07:31:22;;;;;;;7.43;4.78;;;;;;;;;;6318183;22;20007;-94
2022/10/18 07:44:27;;;;;;;8.43;4.90;;;;;;;;;;6358591;22;20018;-93
2022/10/18 07:47:02;;;;;;;10.75;5.00;;;;;;;;;;6332495;22;19999;-94
2022/10/18 07:52:31;;;;;;;9.48;5.28;;;;;;;;;;6361295;22;20033;-91
2022/10/18 07:55:13;;;;;;;7.72;4.63;;;;;;;;;;6333731;22;20003;-95
2022/10/18 08:01:07;;;;;;;12.10;5.85;;;;;;;;;;6357050;22;20014;-93
2022/10/18 08:09:00;;;;;;;7.85;4.90;;;;;;;;;;6297853;22;20023;-95
2022/10/18 08:14:46;;;;;;;8.65;5.80;;;;;;;;;;6326310;22;20022;-93
2022/10/18 08:17:15;;;;;;;12.68;5.55;;;;;;;;;;6270253;22;20030;-95
2022/10/18 08:19:59;;;;;;;7.35;4.70;;;;;;;;;;6328516;22;20048;-93
2022/10/18 08:22:28;;;;;;;15.65;5.40;;;;;;;;;;6321521;22;20087;-95
2022/10/18 08:24:54;;;;;;;7.25;4.47;;;;;;;;;;6322775;22;20002;-90
2022/10/18 08:27:29;;;;;;;8.90;4.63;;;;;;;;;;6325792;22;20010;-91
2022/10/18 08:30:04;;;;;;;9.35;5.07;;;;;;;;;;6320846;22;20027;-91
2022/10/18 08:32:40;;;;;;;8.60;5.57;;;;;;;;;;6320359;22;20010;-93
2022/10/18 08:35:15;;;;;;;6.97;5.28;;;;;;;;;;6319454;22;20003;-95
2022/10/18 08:38:00;;;;;;;8.55;4.72;;;;;;;;;;6329864;22;20067;-94
2022/10/18 08:49:01;;;;;;;6.35;4.53;;;;;;;;;;6258947;22;20042;-94
2022/10/18 08:51:31;;;;;;;9.93;5.40;;;;;;;;;;6230044;23;20004;-91
2022/10/18 08:54:20;;;;;;;10.75;5.65;;;;;;;;;;6224342;23;20004;-92
2022/10/18 09:00:22;;;;;;;8.27;4.95;;;;;;;;;;6222610;23;20079;-94
2022/10/18 09:06:09;;;;;;;12.77;5.03;;;;;;;;;;6173716;23;20009;-95
2022/10/18 09:08:35;;;;;;;;;;;;;;;;;;6285836;22;20444;-90
2022/10/18 09:11:20;;;;;;;12.02;5.75;;;;;;;;;;6323973;22;19910;-94
2022/10/18 09:18:56;;;;;;;9.35;5.20;;;;;;;;;;6356900;22;20042;-92
2022/10/18 09:21:45;;;;;;;7.07;4.88;;;;;;;;;;6314450;22;20431;-92
2022/10/18 09:24:12;;;;;;;10.15;4.95;;;;;;;;;;6293648;22;20007;-90
2022/10/18 09:26:46;;;;;;;11.32;5.03;;;;;;;;;;6313113;22;20003;-90
2022/10/18 09:29:12;;;;;;;9.82;4.80;;;;;;;;;;6313285;22;20013;-92
2022/10/18 09:31:38;;;;;;;10.20;5.22;;;;;;;;;;6313363;22;20026;-93
2022/10/18 09:34:25;;;;;;;7.43;5.25;;;;;;;;;;6314967;22;20089;-92
2022/10/18 09:36:52;;;;;;;9.30;5.07;;;;;;;;;;6266608;22;20011;-92
2022/10/18 09:39:50;;;;;;;8.38;4.50;;;;;;;;;;6316660;22;20002;-93
2022/10/18 09:42:31;;;;;;;7.70;4.90;;;;;;;;;;6269325;22;20308;-92
2022/10/18 09:58:05;;;;;;;11.68;4.15;;;;;;;;;;6294439;22;20030;-93
2022/10/18 10:00:39;;;;;;;9.85;4.68;;;;;;;;;;6316007;22;20015;-94
2022/10/18 10:03:14;;;;;;;6.93;4.43;;;;;;;;;;6316208;22;20304;-95
2022/10/18 10:05:41;;;;;;;7.95;4.25;;;;;;;;;;6316602;22;20056;-89
2022/10/18 10:08:22;;;;;;;8.93;3.85;;;;;;;;;;6315054;22;20030;-92
2022/10/18 10:10:51;;;;;;;7.78;3.90;;;;;;;;;;6313769;22;20003;-94
2022/10/18 10:19:35;;;;;;;6.93;3.80;;;;;;;;;;6188388;23;20016;-95
2022/10/18 10:22:01;;;;;;;11.82;7.50;;;;;;;;;;6175058;23;20005;-93
2022/10/18 10:24:55;;;;;;;22.02;14.15;;;;;;;;;;6169368;23;20490;-96
2022/10/18 10:37:01;;;;;;;6.60;3.85;;;;;;;;;;6317273;22;20172;-94
2022/10/18 10:39:27;;;;;;;7.32;3.70;;;;;;;;;;6285381;22;20010;-93
2022/10/18 10:42:22;;;;;;;9.07;3.63;;;;;;;;;;6295255;22;20010;-92
2022/10/18 10:44:54;;;;;;;8.52;4.25;;;;;;;;;;6140928;23;20005;-96
2022/10/18 10:47:22;;;;;;;;;;;;;;;;;;6144850;23;20005;-94
2022/10/18 10:53:09;;;;;;;6.60;3.42;;;;;;;;;;6305218;22;20019;-93
2022/10/18 11:17:19;;;;;;;4.95;3.10;;;;;;;;;;6349187;22;20014;-95
2022/10/18 11:20:04;;;;;;;5.40;3.40;;;;;;;;;;6332782;22;20034;-94
2022/10/18 11:23:01;;;;;;;16.95;4.15;;;;;;;;;;6335513;22;20070;-95
2022/10/18 11:25:49;;;;;;;6.90;3.40;;;;;;;;;;6294091;22;20041;-94
2022/10/18 11:44:16;;;;;;;7.53;3.70;;;;;;;;;;6325845;22;19999;-95
2022/10/18 11:47:10;;;;;;;9.77;4.20;;;;;;;;;;6287375;22;20019;-94
2022/10/18 11:59:19;;;;;;;8.23;4.30;;;;;;;;;;6314227;22;20034;-95
2022/10/18 12:02:26;;;;;;;8.27;4.85;;;;;;;;;;6325422;22;20360;-95
2022/10/18 12:04:58;;;;;;;13.00;4.40;;;;;;;;;;6316851;22;20003;-93
2022/10/18 12:07:25;;;;;;;7.68;4.10;;;;;;;;;;6321561;22;20058;-94
2022/10/18 12:09:53;;;;;;;7.75;4.63;;;;;;;;;;6316646;22;20007;-92
2022/10/18 12:12:19;;;;;;;8.18;4.38;;;;;;;;;;6316769;22;20010;-93
2022/10/18 12:14:54;;;;;;;10.05;4.47;;;;;;;;;;6315507;22;20002;-96
2022/10/18 12:17:24;;;;;;;7.70;4.50;;;;;;;;;;6315779;22;20015;-93
2022/10/18 12:19:51;;;;;;;8.93;4.90;;;;;;;;;;6314152;22;19999;-94
2022/10/18 12:22:32;;;;;;;12.20;4.90;;;;;;;;;;6314299;22;20003;-93
2022/10/18 12:24:58;;;;;;;9.27;5.10;;;;;;;;;;6314880;22;20011;-91
2022/10/18 12:27:34;;;;;;;9.43;4.85;;;;;;;;;;6314452;22;20007;-92
2022/10/18 12:30:08;;;;;;;6.10;4.28;;;;;;;;;;6321838;22;20355;-91
2022/10/18 12:32:35;;;;;;;13.07;4.78;;;;;;;;;;6327946;22;20006;-90
2022/10/18 12:35:06;;;;;;;10.05;5.53;;;;;;;;;;6314036;22;20003;-92
2022/10/18 12:37:45;;;;;;;10.52;4.93;;;;;;;;;;6313894;22;20015;-93
2022/10/18 12:40:16;;;;;;;14.00;5.03;;;;;;;;;;6313590;22;19999;-90
2022/10/18 12:42:45;;;;;;;8.27;4.93;;;;;;;;;;6314089;22;20007;-93
2022/10/18 12:45:24;;;;;;;9.20;5.30;;;;;;;;;;6317188;22;20010;-95
2022/10/18 12:48:31;;;;;;;8.43;4.57;;;;;;;;;;6315528;22;20423;-96
2022/10/18 12:52:03;;;;;;;10.68;4.88;;;;;;;;;;6318519;22;20083;-95
2022/10/18 12:57:30;;;;;;;9.85;5.03;;;;;;;;;;6246939;23;20358;-96
2022/10/18 13:03:19;;;;;;;;;;;;;;;;;;;;;
2022/10/18 13:05:49;;;;;;;9.25;4.90;;;;;;;;;;6311628;22;20082;-96
2022/10/18 13:14:40;;;;;;;8.60;4.78;;;;;;;;;;6218946;23;20031;-95
2022/10/18 13:17:12;;;;;;;11.52;4.72;;;;;;;;;;6257882;22;20019;-96
2022/10/18 13:20:13;;;;;;;10.30;4.95;;;;;;;;;;6311605;22;20007;-95
2022/10/18 13:23:16;;;;;;;;;;;;;;;;;;;;;
2022/10/18 13:26:02;;;;;;;12.95;4.43;;;;;;;;;;6312807;22;19999;-96
2022/10/18 13:28:45;;;;;;;;;;;;;;;;;;;;;
2022/10/18 13:31:26;;;;;;;11.68;5.20;;;;;;;;;;6311126;22;20010;-94
2022/10/18 13:34:15;;;;;;;8.38;4.22;;;;;;;;;;6309097;22;20505;-96
2022/10/18 13:36:50;;;;;;;8.00;4.45;;;;;;;;;;6313441;22;20007;-93
2022/10/18 13:39:28;;;;;;;10.38;5.05;;;;;;;;;;6310084;22;20010;-94
2022/10/18 13:41:59;;;;;;;11.38;4.70;;;;;;;;;;6308562;22;20015;-95
2022/10/18 13:44:36;;;;;;;11.45;4.78;;;;;;;;;;6308827;22;20029;-93
2022/10/18 13:47:05;;;;;;;6.85;4.25;;;;;;;;;;6309619;22;19999;-93
2022/10/18 13:49:37;;;;;;;9.35;4.65;;;;;;;;;;6308970;22;20063;-96
2022/10/18 13:52:25;;;;;;;9.45;4.40;;;;;;;;;;6307954;22;19999;-96
2022/10/18 13:54:59;;;;;;;9.57;4.57;;;;;;;;;;6310940;22;20432;-96
2022/10/18 14:00:55;;;;;;;8.00;4.35;;;;;;;;;;6251952;23;20706;-93
2022/10/18 14:13:18;;;;;;;11.33;5.67;;;;;;;;;;6229221;23;20015;-96
2022/10/18 14:16:01;;;;;;;18.60;4.97;;;;;;;;;;6168202;23;20271;-96
2022/10/18 14:18:41;;;;;;;14.00;7.18;;;;;;;;;;6185635;23;20188;-94
2022/10/18 14:21:32;;;;;;;11.65;5.95;;;;;;;;;;6183058;23;20008;-92
2022/10/18 14:23:58;;;;;;;8.50;5.45;;;;;;;;;;6174574;23;20358;-93
2022/10/18 14:26:33;;;;;;;10.93;5.65;;;;;;;;;;6191429;23;20055;-91
2022/10/18 14:29:04;;;;;;;13.02;4.70;;;;;;;;;;6191315;22;20015;-87
2022/10/18 14:31:30;;;;;;;10.38;5.05;;;;;;;;;;6312599;22;20003;-95
2022/10/18 14:37:03;;;;;;;12.20;5.90;;;;;;;;;;6332093;22;20033;-94
2022/10/18 14:39:33;;;;;;;12.45;5.38;;;;;;;;;;6318122;22;20007;-94
2022/10/18 14:42:24;;;;;;;8.57;5.20;;;;;;;;;;6301182;22;20006;-93
2022/10/18 14:45:08;;;;;;;11.30;5.30;;;;;;;;;;6329063;22;20007;-95
2022/10/18 14:47:39;;;;;;;7.78;5.13;;;;;;;;;;6315812;22;20056;-90
2022/10/18 14:50:19;;;;;;;8.32;5.40;;;;;;;;;;6313785;22;20007;-89
2022/10/18 14:52:45;;;;;;;8.55;5.45;;;;;;;;;;6316895;22;20063;-92
2022/10/18 14:55:18;;;;;;;9.32;5.55;;;;;;;;;;6315539;22;20483;-90
2022/10/18 14:57:54;;;;;;;22.77;5.93;;;;;;;;;;6314663;22;20010;-88
2022/10/18 15:00:27;;;;;;;13.55;5.80;;;;;;;;;;6321984;22;20010;-90
2022/10/18 15:02:53;;;;;;;9.77;6.68;;;;;;;;;;6317177;22;20098;-90
2022/10/18 15:05:21;;;;;;;13.98;6.95;;;;;;;;;;6315688;22;20003;-90
2022/10/18 15:07:51;;;;;;;11.90;5.68;;;;;;;;;;6315035;22;20007;-95
2022/10/18 15:10:23;;;;;;;14.27;6.47;;;;;;;;;;6315605;22;20003;-95
2022/10/18 15:12:50;;;;;;;10.37;6.33;;;;;;;;;;6315846;22;20094;-90
2022/10/18 15:21:51;;;;;;;;;;;;;;;;;;;;;
2022/10/18 15:33:43;;;;;;;11.43;6.60;;;;;;;;;;6265445;22;20003;-95
2022/10/18 16:02:24;;;;;;;16.52;7.03;;;;;;;;;;6303814;22;20030;-94
2022/10/18 16:04:50;;;;;;;9.77;6.57;;;;;;;;;;6327172;22;20013;-93
2022/10/18 16:07:39;;;;;;;14.98;8.00;;;;;;;;;;6326029;22;19999;-91
2022/10/18 16:10:14;;;;;;;16.00;8.63;;;;;;;;;;6314991;22;20007;-89
2022/10/18 16:12:40;;;;;;;25.02;8.77;;;;;;;;;;6315574;22;20002;-91
2022/10/18 16:15:10;;;;;;;44.15;11.05;;;;;;;;;;6314734;22;20007;-95
2022/10/18 16:17:39;;;;;;;25.23;8.30;;;;;;;;;;6316084;22;20065;-94
2022/10/18 16:20:08;;;;;;;23.58;7.80;;;;;;;;;;6316493;22;19998;-92
2022/10/18 16:22:34;;;;;;;17.88;7.25;;;;;;;;;;6318668;22;20007;-92
2022/10/18 16:25:06;;;;;;;14.85;7.43;;;;;;;;;;6323440;22;20003;-89
2022/10/18 16:30:59;;;;;;;18.05;9.10;;;;;;;;;;6250590;23;20011;-92
2022/10/18 16:33:26;;;;;;;25.80;10.45;;;;;;;;;;6228323;23;20015;-89
2022/10/18 16:35:53;;;;;;;21.60;9.30;;;;;;;;;;6248258;23;20030;-93
2022/10/18 16:38:29;;;;;;;19.80;9.98;;;;;;;;;;6241030;22;20010;-92
2022/10/18 16:40:56;;;;;;;25.52;12.10;;;;;;;;;;6314009;22;20357;-91
2022/10/18 16:43:22;;;;;;;32.03;15.13;;;;;;;;;;6318873;22;20357;-90
2022/10/18 16:45:49;;;;;;;35.55;14.73;;;;;;;;;;6314084;22;20003;-91
2022/10/18 16:48:19;;;;;;;34.67;15.48;;;;;;;;;;6324019;22;20014;-96
2022/10/18 16:50:46;;;;;;;32.15;17.35;;;;;;;;;;6316503;22;20038;-91
2022/10/18 16:53:15;;;;;;;43.60;17.58;;;;;;;;;;6318240;22;20009;-92
2022/10/18 16:59:11;;;;;;;34.35;14.30;;;;;;;;;;6346400;22;20084;-95
2022/10/18 17:01:37;;;;;;;26.65;12.70;;;;;;;;;;6307950;22;20081;-90
2022/10/18 17:04:03;;;;;;;32.85;13.20;;;;;;;;;;6308273;22;20022;-88
2022/10/18 17:06:31;;;;;;;22.30;11.50;;;;;;;;;;6310676;22;20424;-92
2022/10/18 17:08:58;;;;;;;21.17;10.40;;;;;;;;;;6308771;22;20003;-85
2022/10/18 17:11:25;;;;;;;19.92;10.90;;;;;;;;;;6307991;22;20096;-93
2022/10/18 17:13:52;;;;;;;22.30;10.68;;;;;;;;;;6308045;22;20006;-90
2022/10/18 17:16:29;;;;;;;20.90;11.40;;;;;;;;;;6307855;22;20019;-90
2022/10/18 17:18:56;;;;;;;20.65;11.60;;;;;;;;;;6308105;22;20003;-93
2022/10/18 17:21:22;;;;;;;24.80;11.77;;;;;;;;;;6307798;22;20029;-91
2022/10/18 17:23:49;;;;;;;31.80;11.85;;;;;;;;;;6308161;22;20417;-90
2022/10/18 17:26:16;;;;;;;33.50;18.27;;;;;;;;;;6306887;22;20029;-88
2022/10/18 17:28:42;;;;;;;44.83;17.92;;;;;;;;;;6306181;22;20359;-87
2022/10/18 17:31:09;;;;;;;44.47;16.98;;;;;;;;;;6306847;22;20011;-90
2022/10/18 17:33:35;;;;;;;25.58;13.30;;;;;;;;;;6307260;22;20023;-88
2022/10/18 17:36:01;;;;;;;23.92;11.50;;;;;;;;;;6307505;22;20005;-90
2022/10/18 17:38:27;;;;;;;33.22;14.25;;;;;;;;;;6308178;22;20026;-92
2022/10/18 17:40:53;;;;;;;24.98;11.60;;;;;;;;;;6308130;22;20000;-92
2022/10/18 17:43:20;;;;;;;23.92;13.07;;;;;;;;;;6308838;22;20011;-94
2022/10/18 17:45:53;;;;;;;18.55;10.60;;;;;;;;;;6307526;22;20119;-95
2022/10/18 17:48:19;;;;;;;23.85;11.45;;;;;;;;;;6308285;22;19999;-95
2022/10/18 17:50:55;;;;;;;22.27;11.43;;;;;;;;;;6312304;22;20110;-94
2022/10/18 17:53:33;;;;;;;;;;;;;;;;;;;;;
2022/10/18 17:56:04;;;;;;;30.42;13.35;;;;;;;;;;6309634;22;20078;-96
2022/10/18 17:58:31;;;;;;;25.42;13.20;;;;;;;;;;6307738;22;20011;-92
2022/10/18 18:01:20;;;;;;;31.27;12.63;;;;;;;;;;6308812;22;20268;-95
2022/10/18 18:04:07;;;;;;;23.15;12.68;;;;;;;;;;6315936;22;20078;-96
2022/10/18 18:06:59;;;;;;;31.10;15.10;;;;;;;;;;6284527;22;20789;-92
2022/10/18 18:12:18;;;;;;;24.20;13.07;;;;;;;;;;6347064;22;20049;-96
2022/10/18 18:14:50;;;;;;;25.83;14.13;;;;;;;;;;6315969;22;20006;-94
2022/10/18 18:17:20;;;;;;;23.70;12.23;;;;;;;;;;6315571;22;20011;-92
2022/10/18 18:23:01;;;;;;;24.40;13.25;;;;;;;;;;6244705;23;20452;-92
2022/10/18 18:25:28;;;;;;;20.75;12.23;;;;;;;;;;6306863;22;20010;-94
2022/10/18 18:27:54;;;;;;;19.77;11.63;;;;;;;;;;6312998;22;20003;-92
2022/10/18 18:30:21;;;;;;;20.73;12.35;;;;;;;;;;6314881;22;20014;-94
2022/10/18 18:36:15;;;;;;;29.30;13.10;;;;;;;;;;6247114;23;20058;-94
2022/10/18 18:38:41;;;;;;;21.15;11.55;;;;;;;;;;6191731;23;20066;-92
2022/10/18 18:41:44;;;;;;;20.05;11.60;;;;;;;;;;6191274;23;20027;-96
2022/10/18 18:44:10;;;;;;;22.73;12.02;;;;;;;;;;6189630;23;20075;-94
2022/10/18 18:46:37;;;;;;;21.33;10.75;;;;;;;;;;6190122;23;20008;-94
2022/10/18 18:49:03;;;;;;;19.10;10.30;;;;;;;;;;6189981;23;20152;-94
2022/10/18 18:51:37;;;;;;;17.58;9.40;;;;;;;;;;6189832;23;20123;-94
2022/10/18 18:54:03;;;;;;;;;;;;;;;;;;6209468;22;20002;-95
2022/10/18 18:56:36;;;;;;;14.93;8.90;;;;;;;;;;6314114;22;20227;-95
2022/10/18 18:59:08;;;;;;;21.67;9.85;;;;;;;;;;6313402;22;20006;-94
2022/10/18 19:01:37;;;;;;;17.70;10.00;;;;;;;;;;6312880;22;20344;-92
2022/10/18 19:04:04;;;;;;;27.63;10.18;;;;;;;;;;6312475;22;20007;-92
2022/10/18 19:06:57;;;;;;;16.55;9.55;;;;;;;;;;6314017;22;20014;-94
2022/10/18 19:09:26;;;;;;;16.70;8.95;;;;;;;;;;6186029;23;20017;-91
2022/10/18 19:11:59;;;;;;;12.73;8.15;;;;;;;;;;6159360;23;20036;-92
2022/10/18 19:14:37;;;;;;;19.58;9.45;;;;;;;;;;6164117;23;20013;-92
2022/10/18 19:17:12;;;;;;;19.88;10.85;;;;;;;;;;6169479;23;20019;-93
2022/10/18 19:22:45;;;;;;;41.78;19.23;;;;;;;;;;6322594;22;20015;-94
2022/10/18 19:25:11;;;;;;;31.38;15.32;;;;;;;;;;6308634;22;20003;-94
2022/10/18 19:27:40;;;;;;;29.73;14.90;;;;;;;;;;6310524;22;20062;-94
2022/10/18 19:33:24;;;;;;;23.17;12.52;;;;;;;;;;6311216;22;20065;-95
2022/10/18 19:35:51;;;;;;;19.35;9.60;;;;;;;;;;6310271;22;20313;-94
2022/10/18 19:38:17;;;;;;;17.50;9.30;;;;;;;;;;6309484;22;20011;-94
2022/10/18 19:40:49;;;;;;;20.58;11.18;;;;;;;;;;6310206;22;20383;-93
2022/10/18 19:43:24;;;;;;;19.83;11.57;;;;;;;;;;6309419;22;20065;-94
2022/10/18 20:32:03;;;;;;;22.17;12.27;;;;;;;;;;6298915;22;20015;-95
2022/10/18 20:44:21;;;;;;;25.65;13.68;;;;;;;;;;6283185;22;20022;-95
2022/10/18 20:47:45;;;;;;;21.10;12.48;;;;;;;;;;6317493;22;20007;-96
2022/10/18 20:50:33;;;;;;;19.83;10.65;;;;;;;;;;6315878;22;20003;-95
2022/10/18 20:53:21;;;;;;;22.17;13.25;;;;;;;;;;6256580;22;19999;-96
2022/10/18 20:56:43;;;;;;;;;;;;;;;;;;;;;
2022/10/18 21:02:00;;;;;;;24.10;12.93;;;;;;;;;;6302920;22;20029;-95
2022/10/18 21:10:56;;;;;;;21.52;12.60;;;;;;;;;;6255397;23;20070;-96
2022/10/18 21:16:48;;;;;;;;;;;;;;;;;;;;;
2022/10/18 21:19:47;;;;;;;;;;;;;;;;;;;;;
2022/10/18 21:25:38;;;;;;;29.17;14.88;;;;;;;;;;6188699;23;20507;-95
2022/10/18 21:28:28;;;;;;;22.95;13.45;;;;;;;;;;6163214;23;20438;-94
2022/10/18 21:31:01;;;;;;;29.00;17.20;;;;;;;;;;6187986;23;20571;-96
2022/10/18 21:33:43;;;;;;;36.85;17.27;;;;;;;;;;6190593;22;20177;-96
2022/10/18 21:36:10;;;;;;;54.80;22.42;;;;;;;;;;6252960;22;20019;-96
2022/10/18 21:38:48;;;;;;;56.45;23.15;;;;;;;;;;6283366;22;20034;-96
2022/10/18 21:47:46;;;;;;;65.00;26.00;;;;;;;;;;6320225;22;19998;-96
2022/10/18 23:10:17;;;;;;;;;;;;;;;;;;;;;
2022/10/18 23:12:43;;;;;;;23.35;13.80;;;;;;;;;;6324767;22;20022;-96
2022/10/18 23:23:18;;;;;;;27.92;15.63;;;;;;;;;;6205509;23;20031;-96
2022/10/18 23:25:55;;;;;;;24.45;14.73;;;;;;;;;;6179908;23;19996;-95
2022/10/18 23:28:27;;;;;;;25.42;15.77;;;;;;;;;;6242306;22;20052;-94
2022/10/18 23:33:53;;;;;;;28.23;14.98;;;;;;;;;;6304837;22;20109;-94
2022/10/18 23:36:26;;;;;;;25.02;13.82;;;;;;;;;;6329699;22;20020;-94
2022/10/18 23:41:42;;;;;;;25.20;14.32;;;;;;;;;;6336001;22;20044;-96
2022/10/18 23:44:41;;;;;;;24.70;13.65;;;;;;;;;;6332549;22;20007;-94
2022/10/18 23:47:16;;;;;;;25.55;13.82;;;;;;;;;;6246552;22;20010;-94
2022/10/18 23:49:43;;;;;;;22.40;14.00;;;;;;;;;;6292359;22;20060;-94
2022/10/18 23:54:46;;;;;;;24.65;15.10;;;;;;;;;;6320053;22;20031;-94
2022/10/18 23:57:26;;;;;;;25.27;15.07;;;;;;;;;;6359329;22;20059;-94
